Time;durP1;ratioP1;P1;durP2;ratioP2;P2;SDS_P1;SDS_P2;PMS_P1;PMS_P2;Temp;Humidity;BMP_temperature;BMP_pressure;BME280_temperature;BME280_humidity;BME280_pressure;Samples;Min_cycle;Max_cycle;Signal;HPM_P1;HPM_P2
2023/12/05 00:01:59;;;;;;;46.65;26.27;;;;;;;-3.11;97.79;100487.19;7401428;19;20506;-68
2023/12/05 00:04:27;;;;;;;49.72;27.13;;;;;;;-3.12;98.10;100485.47;7399255;19;20018;-68
2023/12/05 00:06:55;;;;;;;47.70;27.40;;;;;;;-3.12;98.67;100477.78;7399109;19;20070;-68
2023/12/05 00:09:24;;;;;;;53.00;28.80;;;;;;;-3.13;98.28;100476.03;7400999;19;20378;-67
2023/12/05 00:11:52;;;;;;;55.72;29.30;;;;;;;-3.12;98.02;100478.63;7401400;19;20078;-67
2023/12/05 00:14:23;;;;;;;50.63;27.67;;;;;;;-3.14;98.68;100475.16;7399125;19;20032;-67
2023/12/05 00:16:52;;;;;;;46.30;26.92;;;;;;;-3.14;98.68;100482.84;7400926;19;20015;-67
2023/12/05 00:19:20;;;;;;;51.75;28.80;;;;;;;-3.12;98.98;100483.78;7400786;19;20019;-67
2023/12/05 00:21:49;;;;;;;56.03;29.83;;;;;;;-3.14;98.52;100482.84;7401043;19;20031;-68
2023/12/05 00:24:17;;;;;;;51.38;28.17;;;;;;;-3.11;99.16;100489.75;7398566;19;20417;-67
2023/12/05 00:26:46;;;;;;;48.13;28.23;;;;;;;-3.09;99.67;100487.28;7398480;19;20530;-67
2023/12/05 00:29:14;;;;;;;48.53;27.48;;;;;;;-3.09;99.71;100488.13;7400885;19;20023;-67
2023/12/05 00:31:45;;;;;;;48.67;27.23;;;;;;;-3.06;99.91;100487.34;7400773;19;20090;-67
2023/12/05 00:34:14;;;;;;;49.45;28.83;;;;;;;-3.06;99.36;100489.91;7397763;19;20031;-67
2023/12/05 00:36:42;;;;;;;50.25;27.98;;;;;;;-3.05;99.15;100479.69;7400685;19;20018;-67
2023/12/05 00:39:11;;;;;;;55.88;31.63;;;;;;;-3.05;99.16;100481.38;7400473;19;20035;-67
2023/12/05 00:41:39;;;;;;;50.95;27.67;;;;;;;-3.05;98.52;100476.25;7400477;19;20078;-67
2023/12/05 00:44:07;;;;;;;47.53;27.60;;;;;;;-3.05;99.00;100484.81;7398482;19;20014;-67
2023/12/05 00:46:36;;;;;;;50.63;27.35;;;;;;;-3.05;99.21;100487.38;7397332;19;20007;-67
2023/12/05 00:49:07;;;;;;;49.22;26.73;;;;;;;-3.04;99.44;100489.13;7400201;19;20086;-66
2023/12/05 00:51:35;;;;;;;50.40;27.52;;;;;;;-3.04;99.02;100484.00;7400530;19;20014;-68
2023/12/05 00:54:04;;;;;;;51.63;27.65;;;;;;;-3.00;99.15;100474.69;7398365;19;20028;-67
2023/12/05 00:56:32;;;;;;;47.60;27.17;;;;;;;-3.02;98.93;100473.75;7400009;19;20379;-67
2023/12/05 00:59:01;;;;;;;51.88;28.65;;;;;;;-3.01;99.10;100472.94;7398490;19;20085;-67
2023/12/05 01:01:29;;;;;;;54.92;27.52;;;;;;;-3.00;99.31;100478.13;7399410;19;20485;-67
2023/12/05 01:03:59;;;;;;;49.65;26.48;;;;;;;-3.00;99.12;100469.56;7398199;19;20011;-67
2023/12/05 01:06:30;;;;;;;52.35;28.45;;;;;;;-2.98;99.76;100473.06;7398258;19;20029;-67
2023/12/05 01:08:58;;;;;;;52.05;28.15;;;;;;;-2.98;99.34;100466.22;7399928;19;20028;-67
2023/12/05 01:11:33;;;;;;;47.55;27.23;;;;;;;-2.98;98.97;100467.91;7399048;19;20070;-67
2023/12/05 01:14:02;;;;;;;50.25;28.80;;;;;;;-2.98;99.39;100465.34;7397969;19;20086;-67
2023/12/05 01:16:30;;;;;;;51.42;28.35;;;;;;;-2.98;99.00;100465.34;7396990;19;20018;-68
2023/12/05 01:18:59;;;;;;;51.60;27.58;;;;;;;-2.97;99.02;100464.50;7396569;19;20481;-68
2023/12/05 01:21:30;;;;;;;53.42;28.67;;;;;;;-2.98;98.27;100455.09;7398753;19;20006;-67
2023/12/05 01:23:58;;;;;;;55.60;27.98;;;;;;;-2.96;98.55;100458.53;7399018;19;20003;-68
2023/12/05 01:26:27;;;;;;;43.72;26.35;;;;;;;-2.96;98.91;100455.97;7397396;19;20419;-67
2023/12/05 01:28:57;;;;;;;51.03;26.45;;;;;;;-2.94;99.21;100459.47;7398544;19;20078;-67
2023/12/05 01:31:25;;;;;;;48.03;27.27;;;;;;;-2.94;99.16;100454.34;7398803;19;20022;-67
2023/12/05 01:33:54;;;;;;;47.90;26.08;;;;;;;-2.93;99.53;100457.75;7396569;19;20031;-67
2023/12/05 01:36:22;;;;;;;44.90;26.33;;;;;;;-2.90;99.41;100457.88;7398271;19;20380;-67
2023/12/05 01:38:54;;;;;;;44.00;25.98;;;;;;;-2.89;99.55;100452.75;7398522;19;20021;-67
2023/12/05 01:41:22;;;;;;;51.22;27.17;;;;;;;-2.90;98.74;100453.59;7398178;19;20366;-68
2023/12/05 01:43:49;;;;;;;46.28;25.77;;;;;;;-2.89;98.64;100446.75;7396516;19;20006;-67
2023/12/05 01:46:20;;;;;;;45.38;27.88;;;;;;;-2.88;98.36;100451.06;7397503;19;20481;-67
2023/12/05 01:48:55;;;;;;;47.30;26.77;;;;;;;-2.88;99.01;100441.69;7398291;19;20020;-67
2023/12/05 01:51:23;;;;;;;45.75;27.70;;;;;;;-2.88;98.95;100435.66;7398682;19;20066;-67
2023/12/05 01:53:55;;;;;;;49.90;27.08;;;;;;;-2.87;99.50;100430.59;7396394;19;20485;-67
2023/12/05 01:56:24;;;;;;;44.47;25.90;;;;;;;-2.86;98.86;100436.56;7398480;19;20070;-68
2023/12/05 01:58:52;;;;;;;49.78;28.85;;;;;;;-2.86;99.26;100426.31;7397906;19;20011;-67
2023/12/05 02:01:21;;;;;;;47.78;27.58;;;;;;;-2.86;99.25;100431.44;7397538;19;20533;-67
2023/12/05 02:03:50;;;;;;;48.75;27.20;;;;;;;-2.85;99.05;100428.91;7395798;19;20028;-67
2023/12/05 02:06:19;;;;;;;51.15;27.50;;;;;;;-2.85;99.37;100439.19;7396429;19;20077;-67
2023/12/05 02:08:49;;;;;;;46.15;26.13;;;;;;;-2.84;99.71;100440.94;7397052;19;20342;-68
2023/12/05 02:11:20;;;;;;;48.00;27.73;;;;;;;-2.82;99.87;100438.41;7394766;19;20014;-67
2023/12/05 02:13:51;;;;;;;48.17;27.88;;;;;;;-2.81;99.06;100435.00;7397273;19;20380;-67
2023/12/05 02:16:30;;;;;;;50.13;27.15;;;;;;;-2.81;99.43;100433.28;7396007;19;20014;-67
2023/12/05 02:19:07;;;;;;;47.08;27.25;;;;;;;-2.81;99.50;100420.44;7397035;19;20371;-67
2023/12/05 02:21:40;;;;;;;50.70;26.52;;;;;;;-2.81;99.21;100412.75;7397491;19;20010;-67
2023/12/05 02:24:26;;;;;;;51.00;27.27;;;;;;;-2.81;99.87;100412.75;7395416;19;20038;-67
2023/12/05 02:27:04;;;;;;;48.50;28.20;;;;;;;-2.79;99.71;100407.69;7396133;19;20014;-67
2023/12/05 02:29:35;;;;;;;49.58;28.17;;;;;;;-2.79;99.43;100408.53;7396486;19;20476;-67
2023/12/05 02:32:05;;;;;;;49.20;26.52;;;;;;;-2.80;98.77;100404.22;7397066;19;20014;-68
2023/12/05 02:34:33;;;;;;;52.45;28.20;;;;;;;-2.79;99.00;100402.56;7393766;19;20028;-67
2023/12/05 02:37:10;;;;;;;47.72;28.30;;;;;;;-2.80;99.01;100393.97;7396880;19;20024;-67
2023/12/05 02:39:48;;;;;;;48.35;28.02;;;;;;;-2.81;98.95;100393.91;7396959;19;20014;-67
2023/12/05 02:42:19;;;;;;;48.22;26.92;;;;;;;-2.81;99.42;100389.66;7396228;19;20010;-67
2023/12/05 02:44:54;;;;;;;48.63;27.83;;;;;;;-2.81;99.11;100389.66;7394745;19;20086;-68
2023/12/05 02:47:26;;;;;;;49.60;29.50;;;;;;;-2.82;98.87;100380.22;7395658;19;20068;-67
2023/12/05 02:49:55;;;;;;;52.67;29.48;;;;;;;-2.85;99.17;100367.28;7396062;19;20027;-66
2023/12/05 02:52:23;;;;;;;51.45;28.75;;;;;;;-2.82;99.44;100371.63;7395855;19;20069;-67
2023/12/05 02:54:52;;;;;;;53.92;29.98;;;;;;;-2.83;98.92;100372.47;7396078;19;20074;-67
2023/12/05 02:57:20;;;;;;;48.10;27.83;;;;;;;-2.84;98.86;100368.19;7396062;19;20027;-67
2023/12/05 02:59:51;;;;;;;49.55;28.10;;;;;;;-2.84;99.20;100368.19;7395566;19;20537;-67
2023/12/05 03:02:20;;;;;;;49.92;29.00;;;;;;;-2.85;99.45;100366.44;7396181;19;20007;-66
2023/12/05 03:04:48;;;;;;;48.22;25.98;;;;;;;-2.86;98.56;100355.28;7393666;19;20502;-67
2023/12/05 03:07:17;;;;;;;48.13;28.25;;;;;;;-2.87;98.66;100351.00;7394956;19;20014;-67
2023/12/05 03:09:46;;;;;;;50.38;27.50;;;;;;;-2.87;98.54;100347.53;7395282;19;20027;-67
2023/12/05 03:12:14;;;;;;;58.47;30.00;;;;;;;-2.91;97.63;100338.03;7396511;19;20481;-66
2023/12/05 03:14:43;;;;;;;54.45;28.70;;;;;;;-2.89;98.36;100344.03;7395003;19;20027;-67
2023/12/05 03:17:14;;;;;;;49.90;28.70;;;;;;;-2.89;98.14;100354.31;7393883;19;20014;-67
2023/12/05 03:19:42;;;;;;;51.92;28.80;;;;;;;-2.95;98.38;100349.91;7394861;19;20010;-67
2023/12/05 03:22:11;;;;;;;52.47;29.05;;;;;;;-2.90;98.62;100353.47;7401048;19;20382;-67
2023/12/05 03:24:39;;;;;;;52.72;28.85;;;;;;;-2.90;98.83;100357.75;7407693;19;20032;-67
2023/12/05 03:27:08;;;;;;;48.45;27.98;;;;;;;-2.90;98.53;100363.72;7407586;19;20027;-67
2023/12/05 03:29:36;;;;;;;49.65;27.65;;;;;;;-2.89;98.36;100370.63;7409330;19;20018;-67
2023/12/05 03:32:05;;;;;;;50.72;28.80;;;;;;;-2.89;99.14;100378.31;7409375;19;20028;-67
2023/12/05 03:34:36;;;;;;;50.22;26.45;;;;;;;-2.87;99.40;100379.22;7407434;19;20090;-67
2023/12/05 03:37:04;;;;;;;45.08;27.02;;;;;;;-2.88;98.88;100374.03;7409637;19;20022;-67
2023/12/05 03:39:33;;;;;;;46.30;27.48;;;;;;;-2.89;98.98;100374.84;7409170;19;20006;-67
2023/12/05 03:42:01;;;;;;;47.42;28.13;;;;;;;-2.88;98.69;100380.06;7408753;19;20035;-67
2023/12/05 03:44:30;;;;;;;50.58;28.73;;;;;;;-2.87;99.18;100384.38;7407220;19;20014;-67
2023/12/05 03:46:58;;;;;;;47.88;28.05;;;;;;;-2.87;98.00;100379.22;7408171;19;20014;-67
2023/12/05 03:49:26;;;;;;;50.40;28.58;;;;;;;-2.87;98.23;100376.66;7408905;19;20031;-67
2023/12/05 03:52:04;;;;;;;51.22;30.17;;;;;;;-2.87;98.50;100376.66;7408417;19;20477;-67
2023/12/05 03:54:33;;;;;;;50.05;27.92;;;;;;;-2.86;98.60;100369.81;7407087;19;20102;-67
2023/12/05 03:57:01;;;;;;;51.22;29.95;;;;;;;-2.86;98.78;100373.25;7408171;19;20074;-67
2023/12/05 03:59:36;;;;;;;48.95;28.33;;;;;;;-2.86;99.02;100375.81;7408611;19;20027;-66
2023/12/05 04:02:05;;;;;;;53.50;30.40;;;;;;;-2.86;98.97;100375.81;7409028;19;20094;-66
2023/12/05 04:04:33;;;;;;;51.65;28.30;;;;;;;-2.85;99.03;100377.56;7406489;19;20014;-66
2023/12/05 04:07:05;;;;;;;51.50;28.63;;;;;;;-2.85;99.02;100387.84;7407576;19;20018;-66
2023/12/05 04:09:30;;;;;;;48.80;27.75;;;;;;;-2.83;98.99;100382.72;7408620;19;20031;-67
2023/12/05 04:12:00;;;;;;;49.15;28.50;;;;;;;-2.84;99.10;100384.44;7405552;19;20364;-67
2023/12/05 04:14:28;;;;;;;51.53;30.38;;;;;;;-2.83;99.88;100388.75;7406390;19;20011;-67
2023/12/05 04:16:57;;;;;;;48.03;27.48;;;;;;;-2.82;99.99;100380.22;7406017;19;20078;-67
2023/12/05 04:19:25;;;;;;;48.35;27.90;;;;;;;-2.81;99.23;100389.66;7408012;19;20074;-67
2023/12/05 04:21:54;;;;;;;53.15;28.65;;;;;;;-2.80;98.75;100385.41;7407687;19;20002;-67
2023/12/05 04:24:25;;;;;;;54.15;28.52;;;;;;;-2.80;99.23;100385.41;7405848;19;20010;-67
2023/12/05 04:26:53;;;;;;;50.88;29.20;;;;;;;-2.80;99.48;100383.69;7405292;19;20010;-68
2023/12/05 04:29:22;;;;;;;50.45;28.17;;;;;;;-2.79;99.37;100382.88;7407789;19;20035;-68
2023/12/05 04:31:50;;;;;;;48.22;28.25;;;;;;;-2.79;99.05;100382.00;7407829;19;20010;-67
2023/12/05 04:34:19;;;;;;;47.33;27.38;;;;;;;-2.78;99.28;100378.59;7397765;19;20501;-67
2023/12/05 04:36:47;;;;;;;50.17;29.20;;;;;;;-2.79;99.38;100375.16;7400344;19;20481;-67
2023/12/05 04:39:16;;;;;;;49.63;28.48;;;;;;;-2.79;99.44;100377.72;7400283;19;20013;-67
2023/12/05 04:41:47;;;;;;;43.38;27.85;;;;;;;-2.78;99.45;100376.00;7400519;19;20070;-67
2023/12/05 04:44:15;;;;;;;46.65;27.17;;;;;;;-2.78;99.79;100370.88;7398556;19;20078;-67
2023/12/05 04:46:44;;;;;;;51.75;28.13;;;;;;;-2.78;99.45;100369.19;7399816;19;20006;-66
2023/12/05 04:49:12;;;;;;;49.55;28.40;;;;;;;-2.76;98.82;100370.94;7399810;19;20019;-67
2023/12/05 04:51:41;;;;;;;46.95;26.83;;;;;;;-2.77;98.63;100364.91;7399753;19;20007;-67
2023/12/05 04:54:09;;;;;;;47.63;28.40;;;;;;;-2.76;98.85;100368.38;7398007;19;20014;-66
2023/12/05 04:56:38;;;;;;;46.72;27.27;;;;;;;-2.76;99.02;100371.81;7399981;19;20010;-68
2023/12/05 04:59:09;;;;;;;47.33;28.48;;;;;;;-2.74;99.28;100366.69;7396770;19;20006;-66
2023/12/05 05:01:37;;;;;;;46.33;26.00;;;;;;;-2.73;99.55;100365.88;7400290;19;20015;-66
2023/12/05 05:04:06;;;;;;;52.97;29.65;;;;;;;-2.73;99.29;100366.75;7397809;19;20367;-67
2023/12/05 05:06:34;;;;;;;44.15;26.33;;;;;;;-2.72;99.69;100371.03;7397189;19;20036;-67
2023/12/05 05:09:04;;;;;;;50.53;28.17;;;;;;;-2.71;99.46;100366.78;7399476;19;20087;-67
2023/12/05 05:11:32;;;;;;;47.35;28.00;;;;;;;-2.69;99.68;100365.13;7399346;19;20067;-67
2023/12/05 05:14:01;;;;;;;46.67;27.00;;;;;;;-2.70;99.57;100364.25;7397051;19;20367;-67
2023/12/05 05:16:32;;;;;;;50.03;26.80;;;;;;;-2.70;99.38;100366.81;7398868;19;20010;-67
2023/12/05 05:19:01;;;;;;;46.55;27.05;;;;;;;-2.69;99.05;100354.84;7398703;19;20484;-67
2023/12/05 05:21:29;;;;;;;43.65;25.55;;;;;;;-2.67;98.66;100363.47;7398132;19;20011;-67
2023/12/05 05:23:58;;;;;;;46.05;26.77;;;;;;;-2.67;99.34;100348.91;7397184;19;20014;-67
2023/12/05 05:26:26;;;;;;;44.40;25.42;;;;;;;-2.66;99.14;100349.81;7398585;19;20014;-67
2023/12/05 05:28:55;;;;;;;46.38;26.20;;;;;;;-2.66;98.03;100331.81;7395887;19;20458;-67
2023/12/05 05:31:23;;;;;;;49.20;28.23;;;;;;;-2.67;98.41;100337.78;7396405;19;20079;-68
2023/12/05 05:33:54;;;;;;;45.53;26.35;;;;;;;-2.67;98.62;100345.50;7397202;19;20019;-67
2023/12/05 05:36:23;;;;;;;40.13;24.65;;;;;;;-2.67;98.70;100348.91;7399008;19;20147;-67
2023/12/05 05:38:51;;;;;;;47.25;26.17;;;;;;;-2.64;99.37;100355.88;7398075;19;20006;-68
2023/12/05 05:41:20;;;;;;;43.45;26.42;;;;;;;-2.67;98.96;100338.66;7398348;19;20011;-67
2023/12/05 05:43:48;;;;;;;45.42;25.55;;;;;;;-2.63;99.17;100343.06;7395900;19;20011;-67
2023/12/05 05:46:17;;;;;;;46.63;27.25;;;;;;;-2.63;98.69;100347.31;7397817;19;20023;-68
2023/12/05 05:48:46;;;;;;;42.78;25.42;;;;;;;-2.63;98.83;100344.72;7395674;19;20021;-66
2023/12/05 05:51:17;;;;;;;41.33;26.17;;;;;;;-2.64;99.27;100332.75;7395588;19;20017;-66
2023/12/05 05:53:46;;;;;;;43.15;23.90;;;;;;;-2.64;99.36;100327.59;7395927;19;20024;-68
2023/12/05 05:56:14;;;;;;;43.08;26.08;;;;;;;-2.64;99.59;100335.31;7394353;19;20028;-68
2023/12/05 05:58:43;;;;;;;43.95;27.27;;;;;;;-2.64;99.17;100343.88;7396910;19;20062;-67
2023/12/05 06:01:13;;;;;;;40.83;25.55;;;;;;;-2.64;99.20;100330.19;7396522;19;20028;-67
2023/12/05 06:03:43;;;;;;;43.28;25.08;;;;;;;-2.65;99.11;100341.28;7395934;19;20510;-66
2023/12/05 06:06:12;;;;;;;42.25;26.38;;;;;;;-2.64;99.48;100340.44;7397527;19;20011;-68
2023/12/05 06:08:43;;;;;;;39.72;24.65;;;;;;;-2.65;99.63;100344.69;7394514;19;20078;-67
2023/12/05 06:11:12;;;;;;;39.92;25.30;;;;;;;-2.65;99.43;100343.84;7396608;19;20006;-68
2023/12/05 06:13:40;;;;;;;40.75;25.15;;;;;;;-2.66;99.45;100345.53;7395866;19;20027;-67
2023/12/05 06:16:10;;;;;;;41.08;26.33;;;;;;;-2.66;99.94;100342.97;7397048;19;20078;-66
2023/12/05 06:18:40;;;;;;;48.42;28.55;;;;;;;-2.65;99.58;100346.41;7396775;19;20015;-68
2023/12/05 06:21:09;;;;;;;45.45;25.70;;;;;;;-2.69;99.57;100331.72;7396868;19;20014;-68
2023/12/05 06:23:38;;;;;;;42.22;24.98;;;;;;;-2.62;99.28;100343.91;7393827;19;20094;-67
2023/12/05 06:26:10;;;;;;;39.08;24.55;;;;;;;-2.63;99.79;100342.16;7394772;19;20087;-67
2023/12/05 06:28:38;;;;;;;40.75;25.42;;;;;;;-2.61;99.55;100335.38;7394996;19;20028;-67
2023/12/05 06:31:08;;;;;;;40.55;25.45;;;;;;;-2.60;99.49;100346.50;7396027;19;20014;-67
2023/12/05 06:33:36;;;;;;;41.90;25.63;;;;;;;-2.59;99.71;100341.44;7394101;19;20014;-67
2023/12/05 06:36:05;;;;;;;40.58;24.33;;;;;;;-2.58;99.54;100350.00;7395039;19;20074;-68
2023/12/05 06:38:34;;;;;;;39.72;24.90;;;;;;;-2.57;99.10;100347.47;7394200;19;20102;-67
2023/12/05 06:41:02;;;;;;;43.10;25.30;;;;;;;-2.57;99.15;100344.03;7395752;19;20010;-68
2023/12/05 06:43:33;;;;;;;42.78;25.30;;;;;;;-2.57;99.23;100342.31;7393622;19;20014;-67
2023/12/05 06:46:02;;;;;;;42.00;24.38;;;;;;;-2.55;99.35;100339.78;7395254;19;20006;-68
2023/12/05 06:48:30;;;;;;;40.38;25.05;;;;;;;-2.56;99.10;100346.63;7394569;19;20014;-68
2023/12/05 06:50:59;;;;;;;42.88;26.13;;;;;;;-2.54;99.37;100346.66;7395954;19;20081;-67
2023/12/05 06:53:27;;;;;;;40.75;24.70;;;;;;;-2.54;99.29;100346.66;7394777;19;20498;-67
2023/12/05 06:55:57;;;;;;;37.22;24.83;;;;;;;-2.53;99.61;100349.28;7395488;19;20141;-68
2023/12/05 06:58:25;;;;;;;44.85;26.15;;;;;;;-2.51;99.93;100347.63;7394931;19;20018;-68
2023/12/05 07:00:58;;;;;;;43.03;25.92;;;;;;;-2.48;100.00;100351.97;7395156;19;20415;-65
2023/12/05 07:03:26;;;;;;;42.75;25.77;;;;;;;-2.46;99.98;100356.31;7394494;19;20044;-66
2023/12/05 07:05:55;;;;;;;43.50;24.42;;;;;;;-2.43;100.00;100350.38;7395839;19;20081;-67
2023/12/05 07:08:23;;;;;;;40.47;24.52;;;;;;;-2.39;100.00;100359.03;7394613;19;20023;-66
2023/12/05 07:10:52;;;;;;;41.97;25.67;;;;;;;-2.39;99.29;100359.03;7395095;19;20516;-68
2023/12/05 07:13:20;;;;;;;41.25;25.55;;;;;;;-2.40;99.34;100355.59;7394722;19;20078;-66
2023/12/05 07:15:49;;;;;;;38.70;24.60;;;;;;;-2.40;99.53;100354.72;7393325;19;20014;-67
2023/12/05 07:18:20;;;;;;;40.22;23.80;;;;;;;-2.41;99.45;100350.41;7393614;19;20094;-66
2023/12/05 07:20:49;;;;;;;41.78;24.58;;;;;;;-2.42;98.96;100352.13;7393929;19;20015;-66
2023/12/05 07:23:17;;;;;;;39.55;23.95;;;;;;;-2.42;99.51;100356.41;7393470;19;20190;-68
2023/12/05 07:25:46;;;;;;;40.55;23.40;;;;;;;-2.43;99.39;100360.66;7394060;19;20103;-67
2023/12/05 07:28:14;;;;;;;39.53;24.77;;;;;;;-2.40;99.59;100365.00;7393244;19;20385;-68
2023/12/05 07:30:43;;;;;;;41.90;26.55;;;;;;;-2.39;99.85;100367.63;7392672;19;20379;-67
2023/12/05 07:33:11;;;;;;;41.85;25.52;;;;;;;-2.37;99.82;100365.09;7393145;19;20027;-68
2023/12/05 07:35:42;;;;;;;40.67;25.08;;;;;;;-2.38;99.80;100358.22;7394855;19;20078;-66
2023/12/05 07:38:17;;;;;;;40.88;24.92;;;;;;;-2.33;100.00;100364.31;7394541;19;20104;-66
2023/12/05 07:40:46;;;;;;;38.75;24.33;;;;;;;-2.31;99.44;100373.81;7394822;19;20017;-67
2023/12/05 07:43:14;;;;;;;39.45;24.63;;;;;;;-2.29;99.53;100368.69;7392292;19;20031;-66
2023/12/05 07:45:43;;;;;;;38.40;24.60;;;;;;;-2.26;99.42;100367.91;7393891;19;20549;-66
2023/12/05 07:48:18;;;;;;;39.50;23.75;;;;;;;-2.25;99.69;100365.41;7392886;19;20511;-67
2023/12/05 07:50:49;;;;;;;43.58;26.45;;;;;;;-2.23;99.67;100362.84;7394162;19;20074;-67
2023/12/05 07:53:17;;;;;;;40.33;25.15;;;;;;;-2.22;99.47;100373.16;7393432;19;20074;-68
2023/12/05 07:55:46;;;;;;;39.75;25.02;;;;;;;-2.19;99.61;100370.66;7393708;19;20007;-68
2023/12/05 07:58:14;;;;;;;39.38;24.60;;;;;;;-2.16;99.37;100362.16;7394121;19;20544;-67
2023/12/05 08:00:43;;;;;;;35.65;23.15;;;;;;;-2.14;99.12;100363.97;7393933;19;20028;-67
2023/12/05 08:03:13;;;;;;;41.70;24.60;;;;;;;-2.12;99.32;100363.97;7393172;19;20074;-67
2023/12/05 08:05:41;;;;;;;40.25;24.67;;;;;;;-2.09;99.57;100370.91;7392382;19;20032;-67
2023/12/05 08:08:12;;;;;;;37.00;24.23;;;;;;;-2.08;99.06;100372.66;7391911;19;20019;-67
2023/12/05 08:10:41;;;;;;;40.08;24.27;;;;;;;-2.05;99.53;100372.69;7400899;19;20007;-67
2023/12/05 08:13:16;;;;;;;35.22;23.40;;;;;;;-2.04;99.20;100367.59;7400121;19;20019;-66
2023/12/05 08:15:45;;;;;;;42.10;24.15;;;;;;;-2.01;99.38;100372.81;7401297;19;20031;-67
2023/12/05 08:18:13;;;;;;;37.28;23.95;;;;;;;-2.02;98.80;100365.03;7401223;19;20043;-67
2023/12/05 08:20:41;;;;;;;37.13;23.00;;;;;;;-1.98;98.81;100375.44;7400536;19;20491;-67
2023/12/05 08:23:13;;;;;;;34.95;22.38;;;;;;;-1.96;98.87;100375.47;7400315;19;20028;-67
2023/12/05 08:25:41;;;;;;;37.10;22.77;;;;;;;-1.94;99.16;100370.41;7397998;19;20027;-68
2023/12/05 08:28:09;;;;;;;38.65;23.70;;;;;;;-1.93;98.73;100369.53;7400101;19;20027;-68
2023/12/05 08:31:00;;;;;;;37.03;23.88;;;;;;;-1.93;98.88;100373.00;7400839;19;20021;-67
2023/12/05 08:33:41;;;;;;;37.97;23.85;;;;;;;-1.90;98.81;100374.78;7398848;19;20082;-68
2023/12/05 08:36:11;;;;;;;35.58;23.33;;;;;;;-1.88;99.05;100376.53;7401108;19;20020;-67
2023/12/05 08:38:42;;;;;;;37.22;23.30;;;;;;;-1.86;99.14;100381.72;7400442;19;20011;-67
2023/12/05 08:41:11;;;;;;;37.70;22.58;;;;;;;-1.85;99.75;100371.44;7398430;19;20011;-67
2023/12/05 08:43:39;;;;;;;35.15;21.80;;;;;;;-1.82;99.84;100375.78;7397317;19;20473;-67
2023/12/05 08:46:08;;;;;;;37.33;25.08;;;;;;;-1.81;99.53;100373.28;7400156;19;20027;-66
2023/12/05 08:48:37;;;;;;;37.35;25.17;;;;;;;-1.81;99.47;100375.84;7398770;19;20011;-67
2023/12/05 08:51:05;;;;;;;39.88;24.92;;;;;;;-1.80;99.76;100375.00;7399963;19;20074;-67
2023/12/05 08:53:34;;;;;;;38.60;26.42;;;;;;;-1.76;99.60;100380.22;7398910;19;20380;-67
2023/12/05 08:56:06;;;;;;;37.50;23.67;;;;;;;-1.74;99.56;100376.00;7397064;19;20023;-67
2023/12/05 08:58:34;;;;;;;38.30;24.83;;;;;;;-1.71;99.91;100373.47;7400255;19;20028;-67
2023/12/05 09:01:03;;;;;;;40.47;24.83;;;;;;;-1.69;99.43;100382.09;7399275;19;20380;-67
2023/12/05 09:03:31;;;;;;;36.63;24.40;;;;;;;-1.67;99.98;100381.31;7397890;19;20032;-66
2023/12/05 09:06:00;;;;;;;34.67;22.88;;;;;;;-1.62;99.91;100383.09;7399569;19;20070;-67
2023/12/05 09:08:28;;;;;;;39.55;23.35;;;;;;;-1.57;99.56;100376.34;7396511;19;20015;-66
2023/12/05 09:10:57;;;;;;;36.92;23.40;;;;;;;-1.54;99.39;100378.97;7399071;19;20019;-67
2023/12/05 09:13:28;;;;;;;35.17;22.58;;;;;;;-1.49;99.43;100373.13;7397879;19;20028;-68
2023/12/05 09:15:57;;;;;;;35.33;22.75;;;;;;;-1.45;98.73;100379.19;7398774;19;20419;-66
2023/12/05 09:18:25;;;;;;;32.70;22.02;;;;;;;-1.42;99.07;100376.69;7398917;19;20010;-67
2023/12/05 09:20:54;;;;;;;33.65;21.77;;;;;;;-1.37;98.91;100384.50;7397775;19;20086;-68
2023/12/05 09:23:22;;;;;;;35.80;22.42;;;;;;;-1.32;99.03;100388.91;7397556;19;20473;-67
2023/12/05 09:25:51;;;;;;;34.53;22.48;;;;;;;-1.33;98.96;100379.47;7398807;19;20126;-68
2023/12/05 09:28:19;;;;;;;40.10;24.08;;;;;;;-1.24;99.03;100386.50;7398317;19;20083;-68
2023/12/05 09:30:50;;;;;;;31.95;21.65;;;;;;;-1.22;97.90;100382.25;7398899;19;20182;-68
2023/12/05 09:33:19;;;;;;;31.92;20.63;;;;;;;-1.18;97.59;100380.59;7396599;19;20082;-67
2023/12/05 09:35:47;;;;;;;33.40;20.30;;;;;;;-1.16;97.35;100379.78;7396932;19;20010;-73
2023/12/05 09:38:16;;;;;;;33.88;21.67;;;;;;;-1.12;97.54;100385.88;7398363;19;20015;-67
2023/12/05 09:40:45;;;;;;;37.17;22.63;;;;;;;-1.09;97.29;100375.63;7397850;19;20542;-66
2023/12/05 09:43:15;;;;;;;36.22;23.38;;;;;;;-1.06;96.61;100379.97;7397350;19;20048;-68
2023/12/05 09:45:45;;;;;;;32.50;21.33;;;;;;;-1.02;96.09;100371.50;7396695;19;20011;-67
2023/12/05 09:48:21;;;;;;;32.50;21.42;;;;;;;-1.00;95.54;100369.78;7395871;19;20462;-67
2023/12/05 09:50:51;;;;;;;33.67;20.45;;;;;;;-0.95;95.94;100368.16;7396671;19;20499;-66
2023/12/05 09:53:20;;;;;;;29.60;19.05;;;;;;;-0.93;95.36;100365.66;7396566;19;20025;-67
2023/12/05 09:55:49;;;;;;;30.63;20.73;;;;;;;-0.88;96.42;100374.31;7397585;19;20078;-66
2023/12/05 09:58:17;;;;;;;29.52;20.38;;;;;;;-0.85;95.64;100362.38;7397270;19;20440;-66
2023/12/05 10:00:46;;;;;;;29.17;20.27;;;;;;;-0.79;94.97;100363.34;7397068;19;20010;-66
2023/12/05 10:03:18;;;;;;;29.38;19.90;;;;;;;-0.74;94.99;100357.41;7396408;19;20095;-67
2023/12/05 10:05:49;;;;;;;31.42;21.08;;;;;;;-0.70;93.67;100360.91;7395103;19;20027;-68
2023/12/05 10:08:19;;;;;;;25.38;18.77;;;;;;;-0.68;93.75;100364.41;7395415;19;20035;-69
2023/12/05 10:10:48;;;;;;;26.42;19.02;;;;;;;-0.66;94.29;100361.00;7397062;19;20018;-68
2023/12/05 10:13:17;;;;;;;27.75;19.25;;;;;;;-0.61;95.09;100353.34;7396094;19;20014;-68
2023/12/05 10:15:46;;;;;;;32.50;21.13;;;;;;;-0.55;94.22;100353.44;7395381;19;20082;-66
2023/12/05 10:18:17;;;;;;;30.10;20.15;;;;;;;-0.51;94.81;100350.06;7396298;19;20006;-66
2023/12/05 10:20:46;;;;;;;27.08;18.80;;;;;;;-0.46;94.25;100349.31;7396488;19;20020;-69
2023/12/05 10:23:15;;;;;;;28.67;20.25;;;;;;;-0.44;93.57;100345.03;7395809;19;20011;-65
2023/12/05 10:25:45;;;;;;;29.65;20.98;;;;;;;-0.43;94.50;100344.19;7396725;19;20020;-65
2023/12/05 10:28:13;;;;;;;28.10;19.42;;;;;;;-0.39;94.21;100340.81;7396506;19;20031;-65
2023/12/05 10:30:42;;;;;;;28.05;19.85;;;;;;;-0.36;93.42;100338.31;7393902;19;20081;-66
2023/12/05 10:33:14;;;;;;;27.38;19.45;;;;;;;-0.35;94.27;100340.03;7395096;19;20018;-70
2023/12/05 10:35:46;;;;;;;29.83;20.30;;;;;;;-0.33;93.89;100338.34;7394631;19;20014;-67
2023/12/05 10:38:17;;;;;;;26.88;19.08;;;;;;;-0.31;94.10;100343.53;7395799;19;20018;-66
2023/12/05 10:40:53;;;;;;;27.60;19.20;;;;;;;-0.31;93.24;100340.97;7397209;19;20010;-72
2023/12/05 10:43:23;;;;;;;27.30;19.52;;;;;;;-0.33;92.67;100338.34;7395229;19;20481;-65
2023/12/05 10:45:52;;;;;;;28.05;19.92;;;;;;;-0.31;92.68;100338.38;7396581;19;20074;-68
2023/12/05 10:48:23;;;;;;;28.40;20.80;;;;;;;-0.34;93.05;100337.47;7396620;19;20070;-68
2023/12/05 10:50:54;;;;;;;29.90;19.88;;;;;;;-0.32;93.89;100340.06;7395409;19;20017;-67
2023/12/05 10:53:22;;;;;;;30.25;20.70;;;;;;;-0.30;94.12;100340.09;7395841;19;20018;-68
2023/12/05 10:55:51;;;;;;;29.48;20.35;;;;;;;-0.32;93.02;100344.38;7395968;19;20027;-68
2023/12/05 10:58:27;;;;;;;32.00;21.50;;;;;;;-0.32;94.84;100334.06;7394069;19;20020;-67
2023/12/05 11:00:56;;;;;;;37.15;26.55;;;;;;;-0.31;94.83;100336.66;7396863;19;20065;-71
2023/12/05 11:03:25;;;;;;;29.55;22.63;;;;;;;-0.26;95.81;100336.75;7394924;19;20153;-68
2023/12/05 11:05:56;;;;;;;27.88;20.65;;;;;;;-0.22;95.13;100330.78;7395278;19;20007;-69
2023/12/05 11:08:24;;;;;;;32.85;22.38;;;;;;;-0.18;95.58;100332.56;7394444;19;20026;-66
2023/12/05 11:10:56;;;;;;;28.55;20.42;;;;;;;-0.16;95.52;100328.31;7393146;19;20426;-66
2023/12/05 11:13:26;;;;;;;32.45;21.10;;;;;;;-0.15;95.70;100329.16;7394086;19;20014;-66
2023/12/05 11:15:58;;;;;;;31.73;20.73;;;;;;;-0.12;95.88;100324.06;7394990;19;20014;-66
2023/12/05 11:18:43;;;;;;;29.52;20.17;;;;;;;-0.12;94.70;100322.34;7394561;19;20485;-65
2023/12/05 11:21:43;;;;;;;29.25;20.05;;;;;;;-0.11;96.07;100316.34;7395344;19;20010;-65